createdAt,value
2023-04-16T00:01:59.348Z,19.30
2023-04-16T00:04:26.450Z,16.33
2023-04-16T00:06:53.331Z,9.07
2023-04-16T00:09:20.206Z,8.98
2023-04-16T00:11:47.271Z,10.60
2023-04-16T00:14:14.084Z,9.82
2023-04-16T00:16:42.266Z,14.70
2023-04-16T00:19:09.645Z,13.90
2023-04-16T00:21:36.686Z,16.42
2023-04-16T00:24:03.537Z,12.98
2023-04-16T00:26:30.496Z,15.80
2023-04-16T00:28:57.316Z,10.20
2023-04-16T00:31:31.973Z,12.32
2023-04-16T00:33:59.809Z,11.90
2023-04-16T00:36:27.961Z,14.85
2023-04-16T00:38:56.192Z,17.13
2023-04-16T00:41:23.721Z,10.05
2023-04-16T00:43:51.729Z,18.73
2023-04-16T00:46:23.461Z,11.85
2023-04-16T00:48:51.704Z,16.77
2023-04-16T00:51:19.028Z,20.33
2023-04-16T00:53:46.684Z,19.67
2023-04-16T00:56:13.846Z,14.15
2023-04-16T00:58:41.157Z,18.85
2023-04-16T01:01:08.161Z,15.07
2023-04-16T01:03:39.798Z,15.70
2023-04-16T01:06:07.705Z,14.70
2023-04-16T01:08:34.862Z,12.95
2023-04-16T01:11:02.444Z,16.50
2023-04-16T01:13:29.479Z,13.68
2023-04-16T01:15:56.514Z,12.00
2023-04-16T01:18:23.931Z,12.50
2023-04-16T01:20:51.601Z,16.08
2023-04-16T01:23:19.358Z,12.80
2023-04-16T01:25:47.105Z,13.32
2023-04-16T01:28:13.993Z,6.50
2023-04-16T01:30:41.504Z,13.68
2023-04-16T01:33:28.621Z,10.88
2023-04-16T01:35:55.752Z,12.68
2023-04-16T01:38:22.565Z,17.02
2023-04-16T01:40:50.780Z,14.50
2023-04-16T01:43:17.663Z,11.13
2023-04-16T01:45:44.512Z,12.55
2023-04-16T01:48:12.014Z,13.48
2023-04-16T01:50:38.957Z,8.70
2023-04-16T01:53:05.822Z,5.05
2023-04-16T01:55:34.085Z,9.18
2023-04-16T01:58:00.914Z,15.35
2023-04-16T02:00:31.634Z,12.32
2023-04-16T02:02:59.354Z,11.65
2023-04-16T02:05:28.115Z,15.88
2023-04-16T02:07:55.113Z,15.88
2023-04-16T02:10:22.278Z,16.58
2023-04-16T02:12:49.778Z,9.55
2023-04-16T02:15:16.611Z,10.50
2023-04-16T02:17:43.965Z,13.30
2023-04-16T02:20:11.431Z,9.63
2023-04-16T02:22:45.021Z,10.70
2023-04-16T02:25:15.789Z,11.95
2023-04-16T02:27:43.220Z,9.02
2023-04-16T02:30:23.058Z,12.98
2023-04-16T02:32:50.208Z,11.35
2023-04-16T02:35:17.395Z,11.68
2023-04-16T02:37:45.281Z,14.93
2023-04-16T02:40:12.141Z,14.40
2023-04-16T02:42:39.008Z,11.88
2023-04-16T02:45:07.213Z,5.60
2023-04-16T02:47:34.490Z,14.23
2023-04-16T02:50:01.335Z,12.65
2023-04-16T02:52:28.158Z,16.20
2023-04-16T02:54:54.978Z,9.88
2023-04-16T02:57:21.974Z,9.38
2023-04-16T02:59:48.752Z,8.13
2023-04-16T03:02:16.360Z,13.20
2023-04-16T03:04:43.710Z,15.55
2023-04-16T03:07:12.579Z,11.52
2023-04-16T03:09:39.567Z,13.93
2023-04-16T03:12:06.466Z,15.80
2023-04-16T03:14:33.748Z,10.82
2023-04-16T03:17:00.684Z,12.93
2023-04-16T03:19:27.453Z,12.98
2023-04-16T03:21:54.280Z,11.15
2023-04-16T03:24:21.306Z,11.73
2023-04-16T03:26:49.149Z,13.75
2023-04-16T03:29:16.104Z,12.02
2023-04-16T03:31:43.391Z,13.60
2023-04-16T03:34:10.856Z,8.27
2023-04-16T03:36:39.305Z,11.15
2023-04-16T03:39:07.694Z,11.80
2023-04-16T03:41:36.113Z,8.00
2023-04-16T03:44:03.410Z,10.90
2023-04-16T03:46:30.638Z,9.00
2023-04-16T03:48:57.760Z,12.50
2023-04-16T03:51:25.270Z,11.38
2023-04-16T03:53:52.284Z,12.63
2023-04-16T03:56:19.433Z,8.98
2023-04-16T03:58:46.238Z,11.38
2023-04-16T04:01:13.067Z,9.63
2023-04-16T04:03:40.279Z,11.30
2023-04-16T04:06:10.550Z,9.90
2023-04-16T04:08:37.329Z,13.60
2023-04-16T04:11:05.249Z,18.70
2023-04-16T04:13:33.884Z,11.30
2023-04-16T04:16:00.724Z,12.95
2023-04-16T04:18:28.439Z,13.82
2023-04-16T04:20:55.235Z,9.27
2023-04-16T04:23:26.594Z,9.90
2023-04-16T04:25:53.400Z,14.98
2023-04-16T04:28:20.674Z,11.27
2023-04-16T04:30:47.607Z,11.55
2023-04-16T04:33:14.492Z,14.60
2023-04-16T04:35:43.263Z,7.90
2023-04-16T04:38:10.008Z,11.77
2023-04-16T04:40:36.984Z,15.38
2023-04-16T04:43:04.179Z,8.23
2023-04-16T04:45:32.137Z,8.05
2023-04-16T04:47:59.394Z,11.55
2023-04-16T04:50:26.402Z,15.90
2023-04-16T04:52:53.185Z,13.35
2023-04-16T04:55:21.017Z,11.30
2023-04-16T04:57:48.626Z,10.65
2023-04-16T05:00:15.716Z,10.30
2023-04-16T05:02:52.154Z,10.02
2023-04-16T05:05:19.229Z,14.52
2023-04-16T05:07:46.090Z,11.45
2023-04-16T05:10:13.019Z,15.80
2023-04-16T05:12:40.211Z,14.40
2023-04-16T05:15:07.734Z,10.82
2023-04-16T05:17:34.618Z,8.40
2023-04-16T05:20:01.544Z,16.48
2023-04-16T05:22:28.298Z,13.52
2023-04-16T05:24:55.115Z,13.15
2023-04-16T05:27:21.895Z,15.95
2023-04-16T05:29:48.693Z,9.15
2023-04-16T05:32:15.460Z,10.00
2023-04-16T05:34:42.291Z,16.38
2023-04-16T05:37:09.120Z,11.07
2023-04-16T05:39:35.980Z,8.73
2023-04-16T05:42:02.766Z,10.20
2023-04-16T05:44:29.826Z,8.98
2023-04-16T05:46:56.599Z,8.65
2023-04-16T05:49:23.520Z,8.27
2023-04-16T05:51:50.954Z,13.43
2023-04-16T05:54:18.063Z,8.23
2023-04-16T05:56:44.909Z,8.50
2023-04-16T05:59:12.036Z,8.15
2023-04-16T06:01:39.278Z,8.50
2023-04-16T06:04:06.288Z,6.22
2023-04-16T06:06:33.372Z,5.00
2023-04-16T06:09:00.223Z,6.07
2023-04-16T06:11:27.695Z,8.48
2023-04-16T06:13:54.576Z,15.48
2023-04-16T06:16:21.471Z,12.85
2023-04-16T06:18:48.468Z,8.13
2023-04-16T06:21:15.769Z,10.10
2023-04-16T06:23:42.595Z,7.90
2023-04-16T06:26:09.417Z,9.57
2023-04-16T06:28:36.501Z,10.88
2023-04-16T06:31:03.420Z,6.90
2023-04-16T06:33:30.331Z,7.47
2023-04-16T06:35:57.129Z,6.57
2023-04-16T06:38:24.058Z,6.32
2023-04-16T06:40:50.992Z,5.57
2023-04-16T06:43:18.071Z,8.50
2023-04-16T06:45:45.466Z,6.75
2023-04-16T06:48:12.283Z,5.05
2023-04-16T06:50:39.097Z,5.70
2023-04-16T06:53:05.971Z,6.45
2023-04-16T06:55:32.854Z,6.68
2023-04-16T06:57:59.723Z,6.50
2023-04-16T07:00:26.496Z,6.47
2023-04-16T07:02:54.680Z,6.00
2023-04-16T07:05:23.250Z,4.38
2023-04-16T07:07:50.048Z,3.42
2023-04-16T07:10:16.972Z,4.38
2023-04-16T07:12:43.974Z,2.60
2023-04-16T07:15:11.230Z,4.68
2023-04-16T07:17:38.224Z,3.85
2023-04-16T07:20:05.689Z,4.53
2023-04-16T07:22:32.559Z,4.90
2023-04-16T07:24:59.303Z,3.90
2023-04-16T07:27:26.086Z,3.90
2023-04-16T07:29:52.932Z,4.20
2023-04-16T07:32:20.308Z,2.97
2023-04-16T07:34:47.164Z,3.97
2023-04-16T07:37:13.892Z,3.33
2023-04-16T07:39:40.755Z,3.65
2023-04-16T07:42:07.585Z,1.33
2023-04-16T07:44:34.368Z,2.40
2023-04-16T07:47:02.783Z,1.98
2023-04-16T07:49:31.078Z,2.42
2023-04-16T07:51:57.895Z,3.28
2023-04-16T07:54:24.713Z,1.35
2023-04-16T07:56:51.953Z,2.40
2023-04-16T07:59:22.878Z,1.55
2023-04-16T08:01:50.351Z,2.28
2023-04-16T08:04:23.151Z,3.28
2023-04-16T08:06:51.632Z,1.73
2023-04-16T08:09:23.298Z,3.60
2023-04-16T08:11:50.217Z,1.95
2023-04-16T08:14:17.615Z,3.08
2023-04-16T08:16:45.018Z,1.17
2023-04-16T08:19:11.914Z,0.90
2023-04-16T08:21:39.035Z,1.20
2023-04-16T08:24:06.131Z,2.10
2023-04-16T08:26:32.932Z,0.85
2023-04-16T08:28:59.715Z,1.35
2023-04-16T08:31:26.565Z,2.38
2023-04-16T08:33:53.555Z,1.25
2023-04-16T08:36:20.868Z,1.20
2023-04-16T08:38:47.668Z,3.53
2023-04-16T08:41:15.078Z,3.75
2023-04-16T08:43:45.040Z,4.18
2023-04-16T08:46:12.699Z,2.42
2023-04-16T08:48:42.997Z,2.63
2023-04-16T08:51:11.024Z,2.00
2023-04-16T08:53:52.298Z,2.72
2023-04-16T08:58:49.144Z,1.90
2023-04-16T09:01:18.168Z,3.40
2023-04-16T09:03:47.478Z,1.38
2023-04-16T09:06:16.510Z,2.47
2023-04-16T09:08:46.653Z,4.15
2023-04-16T09:11:19.321Z,0.77
2023-04-16T09:13:47.072Z,1.05
2023-04-16T09:16:15.433Z,2.88
2023-04-16T09:18:42.276Z,2.80
2023-04-16T09:21:12.872Z,3.22
2023-04-16T09:23:40.427Z,2.45
2023-04-16T09:26:07.300Z,1.20
2023-04-16T09:28:51.524Z,0.85
2023-04-16T09:31:19.557Z,1.63
2023-04-16T09:34:09.493Z,2.97
2023-04-16T09:36:36.989Z,2.20
2023-04-16T09:39:04.339Z,2.55
2023-04-16T09:41:33.392Z,1.75
2023-04-16T09:44:02.319Z,1.48
2023-04-16T09:46:35.206Z,1.17
2023-04-16T09:49:14.938Z,2.45
2023-04-16T09:51:42.571Z,2.03
2023-04-16T09:54:10.090Z,3.58
2023-04-16T09:56:43.741Z,1.15
2023-04-16T09:59:24.063Z,0.95
2023-04-16T10:01:53.461Z,0.65
2023-04-16T10:04:51.410Z,1.33
2023-04-16T10:07:19.088Z,2.08
2023-04-16T10:09:48.498Z,2.13
2023-04-16T10:12:16.118Z,1.48
2023-04-16T10:14:43.320Z,3.05
2023-04-16T10:17:10.430Z,1.38
2023-04-16T10:19:37.744Z,1.98
2023-04-16T10:22:05.257Z,3.47
2023-04-16T10:24:33.783Z,1.58
2023-04-16T10:27:00.798Z,1.38
2023-04-16T10:29:29.565Z,1.27
2023-04-16T10:31:56.967Z,4.28
2023-04-16T10:34:24.800Z,3.65
2023-04-16T10:36:53.069Z,1.75
2023-04-16T10:39:24.320Z,2.97
2023-04-16T10:41:51.823Z,2.35
2023-04-16T10:44:19.685Z,2.97
2023-04-16T10:46:50.841Z,3.33
2023-04-16T10:49:24.938Z,2.08
2023-04-16T10:52:18.276Z,2.28
2023-04-16T10:54:47.018Z,4.03
2023-04-16T10:57:18.296Z,2.40
2023-04-16T10:59:46.135Z,2.15
2023-04-16T11:02:19.711Z,2.55
2023-04-16T11:04:50.759Z,2.95
2023-04-16T11:07:22.802Z,3.35
2023-04-16T11:09:59.603Z,3.08
2023-04-16T11:12:38.055Z,0.95
2023-04-16T11:15:06.525Z,2.35
2023-04-16T11:17:40.604Z,2.45
2023-04-16T11:20:20.263Z,2.70
2023-04-16T11:22:52.251Z,2.13
2023-04-16T11:25:34.280Z,3.10
2023-04-16T11:28:02.983Z,3.35
2023-04-16T11:30:38.613Z,3.47
2023-04-16T11:33:09.456Z,3.47
2023-04-16T11:35:36.356Z,2.67
2023-04-16T11:38:03.126Z,2.65
2023-04-16T11:40:31.310Z,1.98
2023-04-16T11:43:03.293Z,1.33
2023-04-16T11:45:30.057Z,3.47
2023-04-16T11:47:58.018Z,2.72
2023-04-16T11:50:26.449Z,2.47
2023-04-16T11:52:57.457Z,3.35
2023-04-16T11:57:51.950Z,1.83
2023-04-16T12:00:24.474Z,2.22
2023-04-16T12:02:57.273Z,1.58
2023-04-16T12:05:42.333Z,3.92
2023-04-16T12:08:10.922Z,2.92
2023-04-16T12:10:53.589Z,2.35
2023-04-16T12:13:20.753Z,1.60
2023-04-16T12:15:56.077Z,2.60
2023-04-16T12:18:26.223Z,2.42
2023-04-16T12:20:53.221Z,2.40
2023-04-16T12:23:28.024Z,1.83
2023-04-16T12:25:55.419Z,1.67
2023-04-16T12:28:29.124Z,4.47
2023-04-16T12:30:56.232Z,2.45
2023-04-16T12:33:23.201Z,4.15
2023-04-16T12:35:50.703Z,2.60
2023-04-16T12:38:17.558Z,2.35
2023-04-16T12:40:44.497Z,2.55
2023-04-16T12:43:11.295Z,2.15
2023-04-16T12:45:39.419Z,2.47
2023-04-16T12:48:06.355Z,2.88
2023-04-16T12:50:33.226Z,3.75
2023-04-16T12:53:00.137Z,4.03
2023-04-16T12:55:26.985Z,3.95
2023-04-16T12:57:54.587Z,2.35
2023-04-16T13:00:21.994Z,1.88
2023-04-16T13:02:48.956Z,1.60
2023-04-16T13:05:17.344Z,2.08
2023-04-16T13:07:44.127Z,1.92
2023-04-16T13:10:11.005Z,1.20
2023-04-16T13:12:37.855Z,1.20
2023-04-16T13:15:05.305Z,2.17
2023-04-16T13:17:32.201Z,1.60
2023-04-16T13:19:59.089Z,1.15
2023-04-16T13:22:25.874Z,3.83
2023-04-16T13:24:52.680Z,2.00
2023-04-16T13:27:19.467Z,1.10
2023-04-16T13:29:47.138Z,2.85
2023-04-16T13:32:14.848Z,1.73
2023-04-16T13:34:41.673Z,2.92
2023-04-16T13:37:08.477Z,3.35
2023-04-16T13:39:35.364Z,2.78
2023-04-16T13:42:02.746Z,3.28
2023-04-16T13:44:29.730Z,1.98
2023-04-16T13:46:56.764Z,1.92
2023-04-16T13:49:23.707Z,1.33
2023-04-16T13:51:50.715Z,2.72
2023-04-16T13:54:17.691Z,2.47
2023-04-16T13:56:44.535Z,2.28
2023-04-16T13:59:12.141Z,2.17
2023-04-16T14:01:39.997Z,1.52
2023-04-16T14:04:07.384Z,1.08
2023-04-16T14:06:34.655Z,2.08
2023-04-16T14:09:01.958Z,2.42
2023-04-16T14:11:28.844Z,1.77
2023-04-16T14:13:58.229Z,1.10
2023-04-16T14:16:25.131Z,0.98
2023-04-16T14:18:52.095Z,0.55
2023-04-16T14:21:19.169Z,2.17
2023-04-16T14:23:46.055Z,1.42
2023-04-16T14:26:13.073Z,1.63
2023-04-16T14:28:41.016Z,1.08
2023-04-16T14:31:07.885Z,1.45
2023-04-16T14:33:34.702Z,4.30
2023-04-16T14:36:03.082Z,2.05
2023-04-16T14:38:31.289Z,1.90
2023-04-16T14:40:58.198Z,0.82
2023-04-16T14:43:24.990Z,2.92
2023-04-16T14:45:52.866Z,2.47
2023-04-16T14:48:19.747Z,0.93
2023-04-16T14:50:46.674Z,1.52
2023-04-16T14:53:13.478Z,1.60
2023-04-16T14:55:40.348Z,1.55
2023-04-16T14:58:07.212Z,2.05
2023-04-16T15:00:37.034Z,3.35
2023-04-16T15:03:04.130Z,2.78
2023-04-16T15:05:31.879Z,1.27
2023-04-16T15:07:58.664Z,1.95
2023-04-16T15:10:25.629Z,0.65
2023-04-16T15:12:52.434Z,1.08
2023-04-16T15:15:19.834Z,3.78
2023-04-16T15:17:47.169Z,1.52
2023-04-16T15:20:14.515Z,2.35
2023-04-16T15:22:41.635Z,0.80
2023-04-16T15:25:09.460Z,1.35
2023-04-16T15:27:36.962Z,1.50
2023-04-16T15:30:04.397Z,2.70
2023-04-16T15:32:31.552Z,0.90
2023-04-16T15:35:00.168Z,2.10
2023-04-16T15:37:27.020Z,1.65
2023-04-16T15:39:53.880Z,2.35
2023-04-16T15:42:21.072Z,1.60
2023-04-16T15:44:48.070Z,2.88
2023-04-16T15:47:15.039Z,1.95
2023-04-16T15:49:42.155Z,3.25
2023-04-16T15:52:09.589Z,3.30
2023-04-16T15:54:36.439Z,2.95
2023-04-16T15:57:03.352Z,1.65
2023-04-16T15:59:30.148Z,2.10
2023-04-16T16:01:57.421Z,3.55
2023-04-16T16:04:26.590Z,2.45
2023-04-16T16:06:53.885Z,2.08
2023-04-16T16:09:25.811Z,5.43
2023-04-16T16:11:54.417Z,2.67
2023-04-16T16:14:22.034Z,2.95
2023-04-16T16:16:49.008Z,2.65
2023-04-16T16:19:18.308Z,2.00
2023-04-16T16:21:45.217Z,3.63
2023-04-16T16:24:12.215Z,2.53
2023-04-16T16:26:38.941Z,1.83
2023-04-16T16:29:05.967Z,3.20
2023-04-16T16:31:32.875Z,2.13
2023-04-16T16:33:59.686Z,3.45
2023-04-16T16:36:26.646Z,3.85
2023-04-16T16:38:53.455Z,2.63
2023-04-16T16:41:20.730Z,4.82
2023-04-16T16:43:47.483Z,3.55
2023-04-16T16:46:14.248Z,3.60
2023-04-16T16:48:41.203Z,3.13
2023-04-16T16:51:10.650Z,4.75
2023-04-16T16:53:37.448Z,4.90
2023-04-16T16:56:04.435Z,5.50
2023-04-16T16:58:31.688Z,4.22
2023-04-16T17:00:58.869Z,4.38
2023-04-16T17:03:25.789Z,4.10
2023-04-16T17:05:52.668Z,3.65
2023-04-16T17:08:22.297Z,5.40
2023-04-16T17:10:52.097Z,3.28
2023-04-16T17:13:21.272Z,4.05
2023-04-16T17:15:49.236Z,6.90
2023-04-16T17:18:16.604Z,5.75
2023-04-16T17:20:43.358Z,8.85
2023-04-16T17:23:10.179Z,9.38
2023-04-16T17:25:36.986Z,4.68
2023-04-16T17:28:03.936Z,8.85
2023-04-16T17:30:31.623Z,4.82
2023-04-16T17:32:58.588Z,5.60
2023-04-16T17:35:25.765Z,5.30
2023-04-16T17:37:52.539Z,4.40
2023-04-16T17:40:19.376Z,7.78
2023-04-16T17:42:46.284Z,8.93
2023-04-16T17:45:13.432Z,10.60
2023-04-16T17:47:40.439Z,9.38
2023-04-16T17:50:08.713Z,9.27
2023-04-16T17:52:35.538Z,10.23
2023-04-16T17:55:03.667Z,7.28
2023-04-16T17:57:31.046Z,11.25
2023-04-16T17:59:58.359Z,12.98
2023-04-16T18:02:25.825Z,12.02
2023-04-16T18:04:52.841Z,10.50
2023-04-16T18:07:19.835Z,10.25
2023-04-16T18:09:46.657Z,8.80
2023-04-16T18:12:13.749Z,13.93
2023-04-16T18:14:40.790Z,11.82
2023-04-16T18:17:07.722Z,13.05
2023-04-16T18:19:35.530Z,14.02
2023-04-16T18:22:02.853Z,10.52
2023-04-16T18:24:29.673Z,9.73
2023-04-16T18:26:56.851Z,7.25
2023-04-16T18:29:25.284Z,9.07
2023-04-16T18:31:52.579Z,6.90
2023-04-16T18:34:19.528Z,9.32
2023-04-16T18:36:46.422Z,10.15
2023-04-16T18:39:13.307Z,8.95
2023-04-16T18:41:43.616Z,9.38
2023-04-16T18:44:13.418Z,11.05
2023-04-16T18:46:40.223Z,9.10
2023-04-16T18:49:07.208Z,7.78
2023-04-16T18:51:34.026Z,5.43
2023-04-16T18:54:00.804Z,8.88
2023-04-16T18:56:29.869Z,7.70
2023-04-16T18:58:56.639Z,9.65
2023-04-16T19:01:23.442Z,7.93
2023-04-16T19:03:50.359Z,9.18
2023-04-16T19:06:17.294Z,10.50
2023-04-16T19:08:44.091Z,8.93
2023-04-16T19:11:10.860Z,7.32
2023-04-16T19:13:38.720Z,9.27
2023-04-16T19:16:11.150Z,8.15
2023-04-16T19:18:38.892Z,11.38
2023-04-16T19:21:07.048Z,11.35
2023-04-16T19:23:33.941Z,12.35
2023-04-16T19:26:01.705Z,10.38
2023-04-16T19:28:28.648Z,12.25
2023-04-16T19:30:56.005Z,9.07
2023-04-16T19:33:22.952Z,11.60
2023-04-16T19:35:49.770Z,9.82
2023-04-16T19:38:16.747Z,15.55
2023-04-16T19:40:48.359Z,16.48
2023-04-16T19:43:15.441Z,8.95
2023-04-16T19:45:53.460Z,13.82
2023-04-16T19:48:21.583Z,12.02
2023-04-16T19:50:48.614Z,11.45
2023-04-16T19:53:17.313Z,11.65
2023-04-16T19:55:44.223Z,11.07
2023-04-16T19:58:11.063Z,13.63
2023-04-16T20:00:38.986Z,16.08
2023-04-16T20:03:06.444Z,13.35
2023-04-16T20:05:33.449Z,11.70
2023-04-16T20:08:00.409Z,11.05
2023-04-16T20:10:27.941Z,11.65
2023-04-16T20:12:54.865Z,11.68
2023-04-16T20:15:21.832Z,9.75
2023-04-16T20:17:48.725Z,11.25
2023-04-16T20:20:16.512Z,11.30
2023-04-16T20:22:43.904Z,13.43
2023-04-16T20:25:11.560Z,13.07
2023-04-16T20:27:38.602Z,13.15
2023-04-16T20:30:06.458Z,9.57
2023-04-16T20:32:33.537Z,6.93
2023-04-16T20:35:02.001Z,8.45
2023-04-16T20:37:29.260Z,10.27
2023-04-16T20:39:56.423Z,11.07
2023-04-16T20:42:23.513Z,12.50
2023-04-16T20:44:50.710Z,17.45
2023-04-16T20:47:17.506Z,18.38
2023-04-16T20:49:47.410Z,16.27
2023-04-16T20:52:14.818Z,7.75
2023-04-16T20:54:41.705Z,19.00
2023-04-16T20:57:08.536Z,13.52
2023-04-16T20:59:36.952Z,17.08
2023-04-16T21:02:03.900Z,11.45
2023-04-16T21:04:31.086Z,18.70
2023-04-16T21:06:58.118Z,11.38
2023-04-16T21:09:25.327Z,15.98
2023-04-16T21:11:52.130Z,13.88
2023-04-16T21:14:18.929Z,16.65
2023-04-16T21:16:46.013Z,18.85
2023-04-16T21:19:12.981Z,11.43
2023-04-16T21:21:40.432Z,16.23
2023-04-16T21:24:07.497Z,13.85
2023-04-16T21:26:34.518Z,16.40
2023-04-16T21:29:01.444Z,14.75
2023-04-16T21:31:28.369Z,11.48
2023-04-16T21:33:55.240Z,12.98
2023-04-16T21:36:22.088Z,8.68
2023-04-16T21:38:48.954Z,9.90
2023-04-16T21:41:16.973Z,11.65
2023-04-16T21:43:44.002Z,13.77
2023-04-16T21:46:10.905Z,16.05
2023-04-16T21:48:37.716Z,11.98
2023-04-16T21:51:08.292Z,17.38
2023-04-16T21:53:35.377Z,16.42
2023-04-16T21:56:03.620Z,11.32
2023-04-16T21:58:30.640Z,13.88
2023-04-16T22:00:57.435Z,14.30
2023-04-16T22:03:28.095Z,14.10
2023-04-16T22:06:01.155Z,10.15
2023-04-16T22:08:29.129Z,11.77
2023-04-16T22:11:03.177Z,8.38
2023-04-16T22:13:32.423Z,14.60
2023-04-16T22:16:03.403Z,13.68
2023-04-16T22:18:33.779Z,7.63
2023-04-16T22:21:01.563Z,12.20
2023-04-16T22:23:28.725Z,10.48
2023-04-16T22:25:56.308Z,11.95
2023-04-16T22:28:23.292Z,8.65
2023-04-16T22:30:50.083Z,14.75
2023-04-16T22:33:17.004Z,12.25
2023-04-16T22:35:43.867Z,17.98
2023-04-16T22:38:10.802Z,10.52
2023-04-16T22:40:37.738Z,10.20
2023-04-16T22:43:05.333Z,10.10
2023-04-16T22:45:32.238Z,12.30
2023-04-16T22:47:59.120Z,15.45
2023-04-16T22:50:25.927Z,22.17
2023-04-16T22:52:52.765Z,12.75
2023-04-16T22:55:19.629Z,11.13
2023-04-16T22:57:47.639Z,18.45
2023-04-16T23:00:16.794Z,14.52
2023-04-16T23:02:44.396Z,16.10
2023-04-16T23:05:11.888Z,19.13
2023-04-16T23:07:39.067Z,18.52
2023-04-16T23:10:08.314Z,14.60
2023-04-16T23:12:37.508Z,21.13
2023-04-16T23:15:06.754Z,16.75
2023-04-16T23:17:35.127Z,14.48
2023-04-16T23:20:02.532Z,14.57
2023-04-16T23:22:29.413Z,16.48
2023-04-16T23:24:56.366Z,20.38
2023-04-16T23:27:23.174Z,14.40
2023-04-16T23:29:50.005Z,13.15
2023-04-16T23:32:16.882Z,15.50
2023-04-16T23:34:43.751Z,11.98
2023-04-16T23:37:10.740Z,14.65
2023-04-16T23:39:37.739Z,13.55
2023-04-16T23:42:04.586Z,14.77
2023-04-16T23:44:31.368Z,14.93
2023-04-16T23:46:59.052Z,10.38
2023-04-16T23:49:26.065Z,15.13
2023-04-16T23:51:52.930Z,13.48
2023-04-16T23:54:19.887Z,13.85
2023-04-16T23:56:46.702Z,13.75
2023-04-16T23:59:14.167Z,11.90
